sensor_id;sensor_type;location;lat;lon;timestamp;pressure;altitude;pressure_sealevel;temperature;humidity
37291;BME280;23175;-33.706;151.094;2023-05-25T00:02:22;100289.06;;;9.64;36.26
37291;BME280;23175;-33.706;151.094;2023-05-25T00:04:52;100288.55;;;11.00;34.52
37291;BME280;23175;-33.706;151.094;2023-05-25T00:07:22;100273.06;;;13.54;32.06
37291;BME280;23175;-33.706;151.094;2023-05-25T00:09:52;100269.06;;;14.21;31.43
37291;BME280;23175;-33.706;151.094;2023-05-25T00:12:22;100265.24;;;13.71;31.45
37291;BME280;23175;-33.706;151.094;2023-05-25T00:14:51;100262.84;;;14.80;30.86
37291;BME280;23175;-33.706;151.094;2023-05-25T00:17:22;100266.50;;;11.72;34.55
37291;BME280;23175;-33.706;151.094;2023-05-25T00:19:52;100255.95;;;11.60;33.32
37291;BME280;23175;-33.706;151.094;2023-05-25T00:22:22;100247.51;;;15.99;29.50
37291;BME280;23175;-33.706;151.094;2023-05-25T00:24:52;100239.33;;;15.09;30.29
37291;BME280;23175;-33.706;151.094;2023-05-25T00:27:22;100238.75;;;14.86;30.52
37291;BME280;23175;-33.706;151.094;2023-05-25T00:29:51;100230.01;;;15.59;30.37
37291;BME280;23175;-33.706;151.094;2023-05-25T00:32:22;100221.42;;;14.74;31.44
37291;BME280;23175;-33.706;151.094;2023-05-25T00:34:53;100211.26;;;13.84;32.33
37291;BME280;23175;-33.706;151.094;2023-05-25T00:37:23;100209.83;;;15.79;29.91
37291;BME280;23175;-33.706;151.094;2023-05-25T00:39:59;100198.40;;;17.32;28.73
37291;BME280;23175;-33.706;151.094;2023-05-25T00:42:30;100197.65;;;13.73;29.99
37291;BME280;23175;-33.706;151.094;2023-05-25T00:45:01;100199.06;;;14.09;29.67
37291;BME280;23175;-33.706;151.094;2023-05-25T00:47:33;100195.74;;;14.96;28.03
37291;BME280;23175;-33.706;151.094;2023-05-25T00:50:08;100197.16;;;17.10;24.60
37291;BME280;23175;-33.706;151.094;2023-05-25T00:52:38;100198.30;;;20.04;23.30
37291;BME280;23175;-33.706;151.094;2023-05-25T00:55:09;100194.96;;;20.33;22.61
37291;BME280;23175;-33.706;151.094;2023-05-25T00:57:40;100191.54;;;21.47;22.54
37291;BME280;23175;-33.706;151.094;2023-05-25T01:00:15;100182.20;;;19.92;23.49
37291;BME280;23175;-33.706;151.094;2023-05-25T01:02:45;100177.30;;;20.08;23.74
37291;BME280;23175;-33.706;151.094;2023-05-25T01:05:16;100167.82;;;18.03;25.99
37291;BME280;23175;-33.706;151.094;2023-05-25T01:07:49;100162.14;;;16.59;27.34
37291;BME280;23175;-33.706;151.094;2023-05-25T01:10:23;100151.64;;;15.92;28.27
37291;BME280;23175;-33.706;151.094;2023-05-25T01:12:55;100140.80;;;18.47;26.47
37291;BME280;23175;-33.706;151.094;2023-05-25T01:15:27;100133.55;;;17.47;27.09
37291;BME280;23175;-33.706;151.094;2023-05-25T01:17:58;100132.30;;;15.00;29.59
37291;BME280;23175;-33.706;151.094;2023-05-25T01:20:28;100132.23;;;15.75;29.46
37291;BME280;23175;-33.706;151.094;2023-05-25T01:23:02;100124.90;;;13.65;31.78
37291;BME280;23175;-33.706;151.094;2023-05-25T01:25:37;100111.41;;;18.13;27.09
37291;BME280;23175;-33.706;151.094;2023-05-25T01:28:10;100101.13;;;16.28;28.11
37291;BME280;23175;-33.706;151.094;2023-05-25T01:30:46;100100.37;;;15.50;29.60
37291;BME280;23175;-33.706;151.094;2023-05-25T01:33:18;100093.22;;;14.31;30.16
37291;BME280;23175;-33.706;151.094;2023-05-25T01:35:50;100080.73;;;15.96;28.59
37291;BME280;23175;-33.706;151.094;2023-05-25T01:38:21;100082.23;;;15.25;30.93
37291;BME280;23175;-33.706;151.094;2023-05-25T01:40:51;100068.00;;;12.73;31.03
37291;BME280;23175;-33.706;151.094;2023-05-25T01:43:21;100063.50;;;12.72;32.09
37291;BME280;23175;-33.706;151.094;2023-05-25T01:45:55;100055.02;;;15.36;29.70
37291;BME280;23175;-33.706;151.094;2023-05-25T01:48:32;100051.07;;;14.67;30.66
37291;BME280;23175;-33.706;151.094;2023-05-25T01:51:14;100053.44;;;14.30;30.23
37291;BME280;23175;-33.706;151.094;2023-05-25T01:53:50;100040.51;;;13.79;30.87
37291;BME280;23175;-33.706;151.094;2023-05-25T01:56:22;100037.63;;;15.57;28.58
37291;BME280;23175;-33.706;151.094;2023-05-25T01:58:53;100027.47;;;16.29;29.14
37291;BME280;23175;-33.706;151.094;2023-05-25T02:01:25;100020.96;;;12.44;31.43
37291;BME280;23175;-33.706;151.094;2023-05-25T02:03:58;100007.87;;;14.23;29.83
37291;BME280;23175;-33.706;151.094;2023-05-25T02:06:29;99995.48;;;12.02;31.40
37291;BME280;23175;-33.706;151.094;2023-05-25T02:08:59;99996.25;;;14.05;29.96
37291;BME280;23175;-33.706;151.094;2023-05-25T02:11:29;100001.04;;;14.87;29.38
37291;BME280;23175;-33.706;151.094;2023-05-25T02:13:59;99998.29;;;14.61;29.96
37291;BME280;23175;-33.706;151.094;2023-05-25T02:16:29;99996.21;;;14.14;29.17
37291;BME280;23175;-33.706;151.094;2023-05-25T02:18:59;99985.92;;;14.28;29.02
37291;BME280;23175;-33.706;151.094;2023-05-25T02:21:30;99975.68;;;15.54;28.99
37291;BME280;23175;-33.706;151.094;2023-05-25T02:24:01;99963.19;;;11.96;31.63
37291;BME280;23175;-33.706;151.094;2023-05-25T02:26:30;99961.97;;;15.18;29.54
37291;BME280;23175;-33.706;151.094;2023-05-25T02:29:01;99956.03;;;13.88;29.58
37291;BME280;23175;-33.706;151.094;2023-05-25T02:31:31;99951.68;;;12.56;31.14
37291;BME280;23175;-33.706;151.094;2023-05-25T02:34:01;99947.98;;;14.24;29.36
37291;BME280;23175;-33.706;151.094;2023-05-25T02:36:32;99936.77;;;14.24;29.00
37291;BME280;23175;-33.706;151.094;2023-05-25T02:39:02;99926.40;;;12.91;30.28
37291;BME280;23175;-33.706;151.094;2023-05-25T02:41:33;99921.43;;;14.33;28.68
37291;BME280;23175;-33.706;151.094;2023-05-25T02:44:03;99923.53;;;13.31;29.08
37291;BME280;23175;-33.706;151.094;2023-05-25T02:46:33;99921.60;;;13.70;30.34
37291;BME280;23175;-33.706;151.094;2023-05-25T02:49:04;99915.79;;;13.90;30.09
37291;BME280;23175;-33.706;151.094;2023-05-25T02:51:33;99899.32;;;16.12;27.62
37291;BME280;23175;-33.706;151.094;2023-05-25T02:54:03;99892.12;;;15.32;28.75
37291;BME280;23175;-33.706;151.094;2023-05-25T02:56:34;99889.16;;;15.47;27.84
37291;BME280;23175;-33.706;151.094;2023-05-25T02:59:03;99887.97;;;12.79;30.19
37291;BME280;23175;-33.706;151.094;2023-05-25T03:01:33;99876.15;;;13.29;30.32
37291;BME280;23175;-33.706;151.094;2023-05-25T03:04:04;99862.42;;;15.28;28.60
37291;BME280;23175;-33.706;151.094;2023-05-25T03:06:34;99861.30;;;13.81;30.51
37291;BME280;23175;-33.706;151.094;2023-05-25T03:09:04;99857.90;;;11.90;30.89
37291;BME280;23175;-33.706;151.094;2023-05-25T03:11:33;99848.75;;;14.48;28.21
37291;BME280;23175;-33.706;151.094;2023-05-25T03:14:03;99847.18;;;16.06;27.79
37291;BME280;23175;-33.706;151.094;2023-05-25T03:16:34;99853.89;;;14.25;29.93
37291;BME280;23175;-33.706;151.094;2023-05-25T03:19:04;99846.80;;;13.75;29.97
37291;BME280;23175;-33.706;151.094;2023-05-25T03:21:34;99835.51;;;14.85;29.31
37291;BME280;23175;-33.706;151.094;2023-05-25T03:24:03;99832.18;;;15.43;29.18
37291;BME280;23175;-33.706;151.094;2023-05-25T03:26:38;99841.60;;;14.71;29.17
37291;BME280;23175;-33.706;151.094;2023-05-25T03:29:08;99844.92;;;13.56;29.87
37291;BME280;23175;-33.706;151.094;2023-05-25T03:31:38;99840.99;;;13.64;30.03
37291;BME280;23175;-33.706;151.094;2023-05-25T03:34:07;99833.86;;;15.65;27.73
37291;BME280;23175;-33.706;151.094;2023-05-25T03:36:37;99830.69;;;14.48;27.53
37291;BME280;23175;-33.706;151.094;2023-05-25T03:39:07;99831.06;;;14.28;29.11
37291;BME280;23175;-33.706;151.094;2023-05-25T03:41:37;99836.42;;;15.43;28.33
37291;BME280;23175;-33.706;151.094;2023-05-25T03:44:08;99830.20;;;13.64;28.99
37291;BME280;23175;-33.706;151.094;2023-05-25T03:46:38;99828.78;;;15.25;29.67
37291;BME280;23175;-33.706;151.094;2023-05-25T03:49:08;99828.70;;;12.97;29.11
37291;BME280;23175;-33.706;151.094;2023-05-25T03:51:39;99823.95;;;12.61;29.89
37291;BME280;23175;-33.706;151.094;2023-05-25T03:54:08;99817.37;;;15.69;26.60
37291;BME280;23175;-33.706;151.094;2023-05-25T03:56:39;99805.99;;;16.08;26.90
37291;BME280;23175;-33.706;151.094;2023-05-25T03:59:09;99799.51;;;14.82;27.57
37291;BME280;23175;-33.706;151.094;2023-05-25T04:01:38;99798.47;;;13.62;29.88
37291;BME280;23175;-33.706;151.094;2023-05-25T04:04:08;99804.86;;;13.53;29.09
37291;BME280;23175;-33.706;151.094;2023-05-25T04:06:38;99794.80;;;14.65;27.97
37291;BME280;23175;-33.706;151.094;2023-05-25T04:09:08;99791.45;;;15.77;27.34
37291;BME280;23175;-33.706;151.094;2023-05-25T04:11:38;99789.46;;;15.48;26.32
37291;BME280;23175;-33.706;151.094;2023-05-25T04:14:07;99796.91;;;14.79;26.34
37291;BME280;23175;-33.706;151.094;2023-05-25T04:16:37;99790.74;;;13.76;30.47
37291;BME280;23175;-33.706;151.094;2023-05-25T04:19:07;99774.92;;;12.70;30.92
37291;BME280;23175;-33.706;151.094;2023-05-25T04:21:37;99770.18;;;15.36;27.47
37291;BME280;23175;-33.706;151.094;2023-05-25T04:24:07;99778.03;;;15.23;27.99
37291;BME280;23175;-33.706;151.094;2023-05-25T04:26:42;99771.59;;;16.23;28.17
37291;BME280;23175;-33.706;151.094;2023-05-25T04:29:12;99766.36;;;14.14;28.84
37291;BME280;23175;-33.706;151.094;2023-05-25T04:31:43;99770.41;;;15.56;29.53
37291;BME280;23175;-33.706;151.094;2023-05-25T04:34:13;99779.31;;;13.87;28.11
37291;BME280;23175;-33.706;151.094;2023-05-25T04:36:43;99777.63;;;15.17;28.13
37291;BME280;23175;-33.706;151.094;2023-05-25T04:39:13;99768.33;;;13.38;31.78
37291;BME280;23175;-33.706;151.094;2023-05-25T04:41:44;99767.43;;;13.49;29.51
37291;BME280;23175;-33.706;151.094;2023-05-25T04:44:14;99760.83;;;14.27;30.13
37291;BME280;23175;-33.706;151.094;2023-05-25T04:46:44;99755.68;;;15.70;27.86
37291;BME280;23175;-33.706;151.094;2023-05-25T04:49:14;99757.98;;;14.19;30.96
37291;BME280;23175;-33.706;151.094;2023-05-25T04:51:44;99760.12;;;11.57;34.02
37291;BME280;23175;-33.706;151.094;2023-05-25T04:54:14;99751.21;;;14.24;29.13
37291;BME280;23175;-33.706;151.094;2023-05-25T04:56:43;99745.12;;;16.52;28.38
37291;BME280;23175;-33.706;151.094;2023-05-25T04:59:13;99744.17;;;15.42;27.29
37291;BME280;23175;-33.706;151.094;2023-05-25T05:01:43;99748.18;;;15.62;28.19
37291;BME280;23175;-33.706;151.094;2023-05-25T05:04:13;99754.79;;;16.72;28.20
37291;BME280;23175;-33.706;151.094;2023-05-25T05:06:43;99759.94;;;11.57;32.88
37291;BME280;23175;-33.706;151.094;2023-05-25T05:09:12;99757.23;;;15.62;29.60
37291;BME280;23175;-33.706;151.094;2023-05-25T05:11:42;99756.19;;;14.73;29.43
37291;BME280;23175;-33.706;151.094;2023-05-25T05:14:13;99754.79;;;15.62;28.83
37291;BME280;23175;-33.706;151.094;2023-05-25T05:16:43;99754.28;;;14.85;29.91
37291;BME280;23175;-33.706;151.094;2023-05-25T05:19:13;99753.68;;;15.46;28.96
37291;BME280;23175;-33.706;151.094;2023-05-25T05:21:42;99754.53;;;13.48;31.88
37291;BME280;23175;-33.706;151.094;2023-05-25T05:24:12;99746.30;;;14.60;28.95
37291;BME280;23175;-33.706;151.094;2023-05-25T05:26:42;99741.70;;;16.64;26.54
37291;BME280;23175;-33.706;151.094;2023-05-25T05:29:12;99741.09;;;10.49;31.63
37291;BME280;23175;-33.706;151.094;2023-05-25T05:31:41;99735.50;;;13.98;29.35
37291;BME280;23175;-33.706;151.094;2023-05-25T05:34:12;99739.39;;;15.10;29.22
37291;BME280;23175;-33.706;151.094;2023-05-25T05:36:41;99743.06;;;15.83;28.51
37291;BME280;23175;-33.706;151.094;2023-05-25T05:39:12;99751.17;;;13.03;31.62
37291;BME280;23175;-33.706;151.094;2023-05-25T05:41:43;99755.76;;;15.19;28.37
37291;BME280;23175;-33.706;151.094;2023-05-25T05:44:14;99757.84;;;16.42;28.97
37291;BME280;23175;-33.706;151.094;2023-05-25T05:46:43;99761.46;;;14.38;30.13
37291;BME280;23175;-33.706;151.094;2023-05-25T05:49:13;99761.68;;;15.59;29.31
37291;BME280;23175;-33.706;151.094;2023-05-25T05:51:44;99757.85;;;14.45;30.80
37291;BME280;23175;-33.706;151.094;2023-05-25T05:54:13;99759.27;;;13.57;30.92
37291;BME280;23175;-33.706;151.094;2023-05-25T05:56:43;99753.51;;;13.88;29.97
37291;BME280;23175;-33.706;151.094;2023-05-25T05:59:14;99750.85;;;15.75;29.10
37291;BME280;23175;-33.706;151.094;2023-05-25T06:01:44;99752.89;;;13.91;31.47
37291;BME280;23175;-33.706;151.094;2023-05-25T06:04:16;99745.63;;;14.27;30.53
37291;BME280;23175;-33.706;151.094;2023-05-25T06:06:46;99746.41;;;16.35;28.71
37291;BME280;23175;-33.706;151.094;2023-05-25T06:09:16;99747.27;;;14.92;29.21
37291;BME280;23175;-33.706;151.094;2023-05-25T06:11:47;99747.82;;;13.95;29.02
37291;BME280;23175;-33.706;151.094;2023-05-25T06:14:17;99736.03;;;16.45;27.19
37291;BME280;23175;-33.706;151.094;2023-05-25T06:16:47;99740.08;;;13.96;31.23
37291;BME280;23175;-33.706;151.094;2023-05-25T06:19:17;99741.07;;;14.00;31.44
37291;BME280;23175;-33.706;151.094;2023-05-25T06:21:47;99739.46;;;13.08;31.51
37291;BME280;23175;-33.706;151.094;2023-05-25T06:24:17;99731.26;;;13.16;31.84
37291;BME280;23175;-33.706;151.094;2023-05-25T06:26:46;99727.78;;;15.15;29.30
37291;BME280;23175;-33.706;151.094;2023-05-25T06:29:16;99725.93;;;14.16;29.66
37291;BME280;23175;-33.706;151.094;2023-05-25T06:31:46;99731.66;;;15.23;29.25
37291;BME280;23175;-33.706;151.094;2023-05-25T06:34:16;99737.22;;;12.78;31.01
37291;BME280;23175;-33.706;151.094;2023-05-25T06:36:46;99734.29;;;13.37;31.15
37291;BME280;23175;-33.706;151.094;2023-05-25T06:39:16;99734.46;;;12.04;33.02
37291;BME280;23175;-33.706;151.094;2023-05-25T06:41:47;99744.71;;;13.43;32.18
37291;BME280;23175;-33.706;151.094;2023-05-25T06:44:17;99745.53;;;14.90;31.03
37291;BME280;23175;-33.706;151.094;2023-05-25T06:46:47;99740.16;;;14.57;31.64
37291;BME280;23175;-33.706;151.094;2023-05-25T06:49:17;99748.72;;;14.46;31.67
37291;BME280;23175;-33.706;151.094;2023-05-25T06:51:47;99751.01;;;13.42;33.25
37291;BME280;23175;-33.706;151.094;2023-05-25T06:54:17;99745.84;;;14.63;32.66
37291;BME280;23175;-33.706;151.094;2023-05-25T06:56:47;99756.39;;;13.94;33.96
37291;BME280;23175;-33.706;151.094;2023-05-25T06:59:17;99763.75;;;11.38;36.83
37291;BME280;23175;-33.706;151.094;2023-05-25T07:01:47;99753.19;;;9.84;40.27
37291;BME280;23175;-33.706;151.094;2023-05-25T07:04:17;99752.35;;;11.20;38.74
37291;BME280;23175;-33.706;151.094;2023-05-25T07:06:48;99760.63;;;12.62;36.90
37291;BME280;23175;-33.706;151.094;2023-05-25T07:09:18;99766.93;;;12.49;37.77
37291;BME280;23175;-33.706;151.094;2023-05-25T07:11:48;99773.71;;;13.53;36.46
37291;BME280;23175;-33.706;151.094;2023-05-25T07:14:18;99768.64;;;13.30;36.11
37291;BME280;23175;-33.706;151.094;2023-05-25T07:16:48;99761.41;;;14.25;34.92
37291;BME280;23175;-33.706;151.094;2023-05-25T07:19:17;99756.89;;;11.86;37.55
37291;BME280;23175;-33.706;151.094;2023-05-25T07:21:47;99755.02;;;13.28;36.18
37291;BME280;23175;-33.706;151.094;2023-05-25T07:24:18;99759.73;;;12.63;36.96
37291;BME280;23175;-33.706;151.094;2023-05-25T07:26:47;99756.36;;;11.82;36.53
37291;BME280;23175;-33.706;151.094;2023-05-25T07:29:17;99767.29;;;13.55;35.81
37291;BME280;23175;-33.706;151.094;2023-05-25T07:31:47;99775.60;;;12.70;36.15
37291;BME280;23175;-33.706;151.094;2023-05-25T07:34:17;99767.48;;;12.16;37.42
37291;BME280;23175;-33.706;151.094;2023-05-25T07:36:47;99765.84;;;13.08;36.49
37291;BME280;23175;-33.706;151.094;2023-05-25T07:39:17;99757.44;;;13.69;35.84
37291;BME280;23175;-33.706;151.094;2023-05-25T07:41:47;99735.77;;;14.96;33.31
37291;BME280;23175;-33.706;151.094;2023-05-25T07:44:17;99726.12;;;15.30;32.12
37291;BME280;23175;-33.706;151.094;2023-05-25T07:46:47;99739.86;;;13.95;32.12
37291;BME280;23175;-33.706;151.094;2023-05-25T07:49:16;99762.18;;;11.77;33.55
37291;BME280;23175;-33.706;151.094;2023-05-25T07:51:46;99778.89;;;13.36;34.60
37291;BME280;23175;-33.706;151.094;2023-05-25T07:54:16;99779.38;;;14.29;33.02
37291;BME280;23175;-33.706;151.094;2023-05-25T07:56:46;99781.20;;;14.58;33.18
37291;BME280;23175;-33.706;151.094;2023-05-25T07:59:15;99791.96;;;12.24;37.37
37291;BME280;23175;-33.706;151.094;2023-05-25T08:01:45;99794.93;;;13.77;35.87
37291;BME280;23175;-33.706;151.094;2023-05-25T08:04:15;99796.52;;;13.75;35.47
37291;BME280;23175;-33.706;151.094;2023-05-25T08:06:46;99801.46;;;13.24;36.66
37291;BME280;23175;-33.706;151.094;2023-05-25T08:09:15;99803.98;;;12.75;37.24
37291;BME280;23175;-33.706;151.094;2023-05-25T08:11:46;99805.91;;;11.96;38.15
37291;BME280;23175;-33.706;151.094;2023-05-25T08:14:17;99805.38;;;12.85;36.44
37291;BME280;23175;-33.706;151.094;2023-05-25T08:16:47;99789.22;;;11.85;36.95
37291;BME280;23175;-33.706;151.094;2023-05-25T08:19:17;99792.18;;;13.55;36.25
37291;BME280;23175;-33.706;151.094;2023-05-25T08:21:47;99808.79;;;12.57;36.94
37291;BME280;23175;-33.706;151.094;2023-05-25T08:24:17;99803.36;;;12.37;37.56
37291;BME280;23175;-33.706;151.094;2023-05-25T08:26:46;99798.03;;;12.39;36.22
37291;BME280;23175;-33.706;151.094;2023-05-25T08:29:17;99817.22;;;13.98;36.17
37291;BME280;23175;-33.706;151.094;2023-05-25T08:31:47;99814.30;;;13.16;36.82
37291;BME280;23175;-33.706;151.094;2023-05-25T08:34:17;99811.97;;;13.41;37.19
37291;BME280;23175;-33.706;151.094;2023-05-25T08:36:46;99804.53;;;13.55;36.70
37291;BME280;23175;-33.706;151.094;2023-05-25T08:53:37;99787.35;;;12.49;38.99
37291;BME280;23175;-33.706;151.094;2023-05-25T08:56:12;99786.92;;;11.88;38.25
37291;BME280;23175;-33.706;151.094;2023-05-25T08:58:48;99784.26;;;12.96;37.39
37291;BME280;23175;-33.706;151.094;2023-05-25T09:01:20;99777.44;;;12.76;37.37
37291;BME280;23175;-33.706;151.094;2023-05-25T09:03:52;99772.63;;;11.65;37.80
37291;BME280;23175;-33.706;151.094;2023-05-25T09:06:23;99767.39;;;10.62;39.13
37291;BME280;23175;-33.706;151.094;2023-05-25T09:08:55;99770.82;;;12.27;36.86
37291;BME280;23175;-33.706;151.094;2023-05-25T09:11:26;99768.43;;;10.56;39.12
37291;BME280;23175;-33.706;151.094;2023-05-25T09:13:57;99766.67;;;13.58;35.44
37291;BME280;23175;-33.706;151.094;2023-05-25T09:16:28;99771.08;;;11.90;38.59
37291;BME280;23175;-33.706;151.094;2023-05-25T09:19:00;99770.89;;;13.02;36.04
37291;BME280;23175;-33.706;151.094;2023-05-25T09:21:30;99766.12;;;11.15;38.15
37291;BME280;23175;-33.706;151.094;2023-05-25T09:24:01;99755.88;;;13.90;33.77
37291;BME280;23175;-33.706;151.094;2023-05-25T09:26:31;99760.92;;;12.60;37.39
37291;BME280;23175;-33.706;151.094;2023-05-25T09:29:01;99758.67;;;12.83;36.39
37291;BME280;23175;-33.706;151.094;2023-05-25T09:31:32;99762.05;;;10.73;38.58
37291;BME280;23175;-33.706;151.094;2023-05-25T09:34:03;99763.06;;;12.97;36.76
37291;BME280;23175;-33.706;151.094;2023-05-25T09:36:40;99768.02;;;13.75;35.69
37291;BME280;23175;-33.706;151.094;2023-05-25T09:39:11;99758.44;;;13.04;36.33
37291;BME280;23175;-33.706;151.094;2023-05-25T09:41:42;99763.85;;;11.26;38.96
37291;BME280;23175;-33.706;151.094;2023-05-25T09:44:12;99762.02;;;13.26;36.38
37291;BME280;23175;-33.706;151.094;2023-05-25T09:46:42;99752.12;;;11.10;39.76
37291;BME280;23175;-33.706;151.094;2023-05-25T09:49:12;99741.08;;;13.77;36.22
37291;BME280;23175;-33.706;151.094;2023-05-25T09:51:42;99749.41;;;14.27;36.20
37291;BME280;23175;-33.706;151.094;2023-05-25T09:54:12;99765.50;;;10.06;39.99
37291;BME280;23175;-33.706;151.094;2023-05-25T09:56:42;99762.31;;;11.77;39.75
37291;BME280;23175;-33.706;151.094;2023-05-25T09:59:13;99754.50;;;11.50;39.61
37291;BME280;23175;-33.706;151.094;2023-05-25T10:01:43;99746.28;;;9.73;41.68
37291;BME280;23175;-33.706;151.094;2023-05-25T10:04:16;99731.08;;;12.94;35.41
37291;BME280;23175;-33.706;151.094;2023-05-25T10:06:47;99727.23;;;12.82;37.03
37291;BME280;23175;-33.706;151.094;2023-05-25T10:09:18;99722.19;;;14.25;35.80
37291;BME280;23175;-33.706;151.094;2023-05-25T10:11:50;99727.20;;;14.02;36.23
37291;BME280;23175;-33.706;151.094;2023-05-25T10:14:24;99731.87;;;13.97;36.42
37291;BME280;23175;-33.706;151.094;2023-05-25T10:16:57;99732.13;;;11.92;38.71
37291;BME280;23175;-33.706;151.094;2023-05-25T10:19:30;99728.38;;;12.74;38.50
37291;BME280;23175;-33.706;151.094;2023-05-25T10:22:05;99717.26;;;11.49;38.34
37291;BME280;23175;-33.706;151.094;2023-05-25T10:24:43;99715.80;;;11.75;38.30
37291;BME280;23175;-33.706;151.094;2023-05-25T10:27:21;99715.39;;;12.16;39.61
37291;BME280;23175;-33.706;151.094;2023-05-25T10:29:52;99722.17;;;12.10;38.73
37291;BME280;23175;-33.706;151.094;2023-05-25T10:32:26;99705.33;;;12.30;38.87
37291;BME280;23175;-33.706;151.094;2023-05-25T10:34:57;99712.34;;;13.02;38.69
37291;BME280;23175;-33.706;151.094;2023-05-25T10:37:30;99731.28;;;10.49;41.51
37291;BME280;23175;-33.706;151.094;2023-05-25T10:40:03;99733.51;;;10.81;41.44
37291;BME280;23175;-33.706;151.094;2023-05-25T10:42:34;99738.10;;;12.64;38.30
37291;BME280;23175;-33.706;151.094;2023-05-25T10:45:07;99735.48;;;7.94;44.23
37291;BME280;23175;-33.706;151.094;2023-05-25T10:47:39;99720.82;;;10.40;40.65
37291;BME280;23175;-33.706;151.094;2023-05-25T10:50:20;99710.10;;;12.63;37.31
37291;BME280;23175;-33.706;151.094;2023-05-25T10:53:04;99702.00;;;11.53;37.47
37291;BME280;23175;-33.706;151.094;2023-05-25T10:55:48;99702.35;;;11.11;36.98
37291;BME280;23175;-33.706;151.094;2023-05-25T10:58:20;99694.78;;;13.27;32.41
37291;BME280;23175;-33.706;151.094;2023-05-25T11:00:59;99688.86;;;10.86;35.87
37291;BME280;23175;-33.706;151.094;2023-05-25T11:04:35;99667.93;;;10.74;34.96
37291;BME280;23175;-33.706;151.094;2023-05-25T11:07:07;99682.98;;;12.64;31.50
37291;BME280;23175;-33.706;151.094;2023-05-25T11:09:41;99681.95;;;11.98;32.00
37291;BME280;23175;-33.706;151.094;2023-05-25T11:12:20;99682.70;;;13.15;32.83
37291;BME280;23175;-33.706;151.094;2023-05-25T11:15:22;99668.16;;;12.14;35.18
37291;BME280;23175;-33.706;151.094;2023-05-25T11:18:15;99650.88;;;12.98;28.27
37291;BME280;23175;-33.706;151.094;2023-05-25T11:20:45;99657.45;;;13.33;28.65
37291;BME280;23175;-33.706;151.094;2023-05-25T11:23:30;99665.65;;;12.00;28.26
37291;BME280;23175;-33.706;151.094;2023-05-25T11:26:05;99664.90;;;12.08;28.45
37291;BME280;23175;-33.706;151.094;2023-05-25T11:28:45;99654.29;;;12.58;31.71
37291;BME280;23175;-33.706;151.094;2023-05-25T11:31:15;99639.21;;;12.06;32.57
37291;BME280;23175;-33.706;151.094;2023-05-25T11:33:49;99639.24;;;11.09;32.00
37291;BME280;23175;-33.706;151.094;2023-05-25T11:36:24;99648.53;;;13.22;31.37
37291;BME280;23175;-33.706;151.094;2023-05-25T11:38:54;99642.39;;;14.49;27.18
37291;BME280;23175;-33.706;151.094;2023-05-25T11:41:24;99634.54;;;12.11;30.40
37291;BME280;23175;-33.706;151.094;2023-05-25T11:43:55;99626.94;;;11.69;29.97
37291;BME280;23175;-33.706;151.094;2023-05-25T11:46:25;99610.01;;;13.97;27.07
37291;BME280;23175;-33.706;151.094;2023-05-25T11:48:55;99610.67;;;13.96;26.43
37291;BME280;23175;-33.706;151.094;2023-05-25T11:51:28;99625.30;;;11.86;27.06
37291;BME280;23175;-33.706;151.094;2023-05-25T11:53:58;99637.23;;;11.81;30.46
37291;BME280;23175;-33.706;151.094;2023-05-25T11:56:32;99628.67;;;11.94;29.60
37291;BME280;23175;-33.706;151.094;2023-05-25T11:59:05;99615.47;;;11.97;27.99
37291;BME280;23175;-33.706;151.094;2023-05-25T12:01:35;99599.27;;;15.16;24.90
37291;BME280;23175;-33.706;151.094;2023-05-25T12:04:10;99595.00;;;13.65;25.58
37291;BME280;23175;-33.706;151.094;2023-05-25T12:06:40;99592.33;;;14.03;25.37
37291;BME280;23175;-33.706;151.094;2023-05-25T12:09:12;99591.29;;;13.88;25.34
37291;BME280;23175;-33.706;151.094;2023-05-25T12:11:43;99605.35;;;14.42;28.47
37291;BME280;23175;-33.706;151.094;2023-05-25T12:14:14;99610.58;;;11.89;31.43
37291;BME280;23175;-33.706;151.094;2023-05-25T12:16:44;99600.22;;;11.89;29.54
37291;BME280;23175;-33.706;151.094;2023-05-25T12:19:15;99592.89;;;13.55;27.86
37291;BME280;23175;-33.706;151.094;2023-05-25T12:21:46;99586.05;;;14.08;26.22
37291;BME280;23175;-33.706;151.094;2023-05-25T12:24:16;99578.11;;;13.65;26.77
37291;BME280;23175;-33.706;151.094;2023-05-25T12:26:51;99571.23;;;14.66;26.26
37291;BME280;23175;-33.706;151.094;2023-05-25T12:29:22;99567.90;;;12.06;27.39
37291;BME280;23175;-33.706;151.094;2023-05-25T12:31:52;99573.96;;;13.82;26.86
37291;BME280;23175;-33.706;151.094;2023-05-25T12:34:31;99571.30;;;14.35;26.92
37291;BME280;23175;-33.706;151.094;2023-05-25T12:37:01;99558.63;;;15.37;26.58
37291;BME280;23175;-33.706;151.094;2023-05-25T12:39:34;99555.90;;;13.91;28.35
37291;BME280;23175;-33.706;151.094;2023-05-25T12:42:04;99556.34;;;14.64;28.99
37291;BME280;23175;-33.706;151.094;2023-05-25T12:44:35;99559.61;;;15.24;29.65
37291;BME280;23175;-33.706;151.094;2023-05-25T12:47:14;99564.83;;;13.95;30.67
37291;BME280;23175;-33.706;151.094;2023-05-25T12:49:45;99576.45;;;13.80;32.55
37291;BME280;23175;-33.706;151.094;2023-05-25T12:52:33;99568.51;;;14.45;31.81
37291;BME280;23175;-33.706;151.094;2023-05-25T12:55:20;99553.98;;;12.94;33.48
37291;BME280;23175;-33.706;151.094;2023-05-25T12:57:51;99547.58;;;14.26;32.27
37291;BME280;23175;-33.706;151.094;2023-05-25T13:00:23;99551.82;;;13.59;30.88
37291;BME280;23175;-33.706;151.094;2023-05-25T13:03:00;99559.90;;;13.22;30.98
37291;BME280;23175;-33.706;151.094;2023-05-25T13:05:33;99551.07;;;14.62;30.67